sensor_id;sensor_type;location;lat;lon;timestamp;P1;durP1;ratioP1;P2;durP2;ratioP2
33954;SDS011;20233;50.804;7.126;2023-04-25T00:01:33;10.13;;;3.15;;
33954;SDS011;20233;50.804;7.126;2023-04-25T00:04:00;10.32;;;3.75;;
33954;SDS011;20233;50.804;7.126;2023-04-25T00:06:26;10.48;;;3.38;;
33954;SDS011;20233;50.804;7.126;2023-04-25T00:08:52;11.48;;;3.85;;
33954;SDS011;20233;50.804;7.126;2023-04-25T00:11:18;9.18;;;3.60;;
33954;SDS011;20233;50.804;7.126;2023-04-25T00:13:43;14.00;;;3.80;;
33954;SDS011;20233;50.804;7.126;2023-04-25T00:16:11;12.18;;;4.80;;
33954;SDS011;20233;50.804;7.126;2023-04-25T00:18:39;12.13;;;3.28;;
33954;SDS011;20233;50.804;7.126;2023-04-25T00:21:05;11.05;;;3.15;;
33954;SDS011;20233;50.804;7.126;2023-04-25T00:23:31;9.77;;;3.10;;
33954;SDS011;20233;50.804;7.126;2023-04-25T00:25:56;11.70;;;4.88;;
33954;SDS011;20233;50.804;7.126;2023-04-25T00:28:22;10.43;;;4.00;;
33954;SDS011;20233;50.804;7.126;2023-04-25T00:30:47;13.23;;;4.13;;
33954;SDS011;20233;50.804;7.126;2023-04-25T00:33:13;10.70;;;3.47;;
33954;SDS011;20233;50.804;7.126;2023-04-25T00:35:39;9.98;;;3.92;;
33954;SDS011;20233;50.804;7.126;2023-04-25T00:38:04;9.52;;;4.35;;
33954;SDS011;20233;50.804;7.126;2023-04-25T00:40:30;11.90;;;3.90;;
33954;SDS011;20233;50.804;7.126;2023-04-25T00:42:55;10.73;;;3.80;;
33954;SDS011;20233;50.804;7.126;2023-04-25T00:45:21;15.75;;;3.92;;
33954;SDS011;20233;50.804;7.126;2023-04-25T00:47:51;14.70;;;3.55;;
33954;SDS011;20233;50.804;7.126;2023-04-25T00:50:17;13.90;;;4.10;;
33954;SDS011;20233;50.804;7.126;2023-04-25T00:52:43;11.95;;;3.60;;
33954;SDS011;20233;50.804;7.126;2023-04-25T00:55:10;12.77;;;4.03;;
33954;SDS011;20233;50.804;7.126;2023-04-25T00:57:37;11.02;;;3.50;;
33954;SDS011;20233;50.804;7.126;2023-04-25T01:00:07;12.23;;;3.78;;
33954;SDS011;20233;50.804;7.126;2023-04-25T01:02:38;18.15;;;4.85;;
33954;SDS011;20233;50.804;7.126;2023-04-25T01:05:05;9.43;;;3.70;;
33954;SDS011;20233;50.804;7.126;2023-04-25T01:07:31;19.65;;;4.35;;
33954;SDS011;20233;50.804;7.126;2023-04-25T01:09:57;17.05;;;4.15;;
33954;SDS011;20233;50.804;7.126;2023-04-25T01:12:23;10.98;;;3.85;;
33954;SDS011;20233;50.804;7.126;2023-04-25T01:14:49;9.38;;;3.45;;
33954;SDS011;20233;50.804;7.126;2023-04-25T01:17:14;19.17;;;4.57;;
33954;SDS011;20233;50.804;7.126;2023-04-25T01:19:42;16.52;;;5.25;;
33954;SDS011;20233;50.804;7.126;2023-04-25T01:22:08;18.40;;;4.43;;
33954;SDS011;20233;50.804;7.126;2023-04-25T01:24:35;13.52;;;3.90;;
33954;SDS011;20233;50.804;7.126;2023-04-25T01:27:01;20.42;;;4.97;;
33954;SDS011;20233;50.804;7.126;2023-04-25T01:29:27;11.23;;;4.45;;
33954;SDS011;20233;50.804;7.126;2023-04-25T01:31:54;15.50;;;4.10;;
33954;SDS011;20233;50.804;7.126;2023-04-25T01:34:20;16.08;;;4.13;;
33954;SDS011;20233;50.804;7.126;2023-04-25T01:36:49;14.50;;;4.03;;
33954;SDS011;20233;50.804;7.126;2023-04-25T01:39:15;13.63;;;4.22;;
33954;SDS011;20233;50.804;7.126;2023-04-25T01:41:42;11.15;;;3.63;;
33954;SDS011;20233;50.804;7.126;2023-04-25T01:44:07;18.50;;;4.50;;
33954;SDS011;20233;50.804;7.126;2023-04-25T01:46:33;14.65;;;4.20;;
33954;SDS011;20233;50.804;7.126;2023-04-25T01:48:59;15.20;;;4.88;;
33954;SDS011;20233;50.804;7.126;2023-04-25T01:51:25;16.27;;;4.55;;
33954;SDS011;20233;50.804;7.126;2023-04-25T01:53:51;14.05;;;3.60;;
33954;SDS011;20233;50.804;7.126;2023-04-25T01:56:17;12.20;;;4.03;;
33954;SDS011;20233;50.804;7.126;2023-04-25T01:58:43;20.83;;;4.13;;
33954;SDS011;20233;50.804;7.126;2023-04-25T02:01:09;13.15;;;4.32;;
33954;SDS011;20233;50.804;7.126;2023-04-25T02:03:35;18.52;;;4.10;;
33954;SDS011;20233;50.804;7.126;2023-04-25T02:06:03;15.02;;;4.97;;
33954;SDS011;20233;50.804;7.126;2023-04-25T02:08:28;10.13;;;3.38;;
33954;SDS011;20233;50.804;7.126;2023-04-25T02:10:55;18.17;;;4.60;;
33954;SDS011;20233;50.804;7.126;2023-04-25T02:13:20;21.35;;;5.18;;
33954;SDS011;20233;50.804;7.126;2023-04-25T02:15:46;18.38;;;4.35;;
33954;SDS011;20233;50.804;7.126;2023-04-25T02:18:11;12.63;;;4.72;;
33954;SDS011;20233;50.804;7.126;2023-04-25T02:20:37;20.50;;;4.57;;
33954;SDS011;20233;50.804;7.126;2023-04-25T02:23:04;13.93;;;4.38;;
33954;SDS011;20233;50.804;7.126;2023-04-25T02:25:30;20.13;;;6.80;;
33954;SDS011;20233;50.804;7.126;2023-04-25T02:27:55;14.77;;;3.88;;
33954;SDS011;20233;50.804;7.126;2023-04-25T02:30:21;13.90;;;4.60;;
33954;SDS011;20233;50.804;7.126;2023-04-25T02:32:46;19.38;;;4.88;;
33954;SDS011;20233;50.804;7.126;2023-04-25T02:35:12;16.92;;;4.60;;
33954;SDS011;20233;50.804;7.126;2023-04-25T02:37:38;17.27;;;4.47;;
33954;SDS011;20233;50.804;7.126;2023-04-25T02:40:06;20.30;;;4.03;;
33954;SDS011;20233;50.804;7.126;2023-04-25T02:42:32;14.48;;;4.13;;
33954;SDS011;20233;50.804;7.126;2023-04-25T02:44:58;18.98;;;5.00;;
33954;SDS011;20233;50.804;7.126;2023-04-25T02:47:23;17.83;;;4.95;;
33954;SDS011;20233;50.804;7.126;2023-04-25T02:49:49;13.93;;;5.55;;
33954;SDS011;20233;50.804;7.126;2023-04-25T02:52:15;16.83;;;4.90;;
33954;SDS011;20233;50.804;7.126;2023-04-25T02:54:40;21.25;;;4.63;;
33954;SDS011;20233;50.804;7.126;2023-04-25T02:57:07;17.63;;;5.43;;
33954;SDS011;20233;50.804;7.126;2023-04-25T02:59:33;24.08;;;6.60;;
33954;SDS011;20233;50.804;7.126;2023-04-25T03:01:59;11.60;;;5.00;;
33954;SDS011;20233;50.804;7.126;2023-04-25T03:04:25;16.60;;;4.80;;
33954;SDS011;20233;50.804;7.126;2023-04-25T03:06:50;12.82;;;4.55;;
33954;SDS011;20233;50.804;7.126;2023-04-25T03:09:16;19.63;;;5.13;;
33954;SDS011;20233;50.804;7.126;2023-04-25T03:11:43;15.02;;;4.65;;
33954;SDS011;20233;50.804;7.126;2023-04-25T03:14:09;14.90;;;5.47;;
33954;SDS011;20233;50.804;7.126;2023-04-25T03:16:35;15.23;;;5.70;;
33954;SDS011;20233;50.804;7.126;2023-04-25T03:19:01;15.63;;;4.97;;
33954;SDS011;20233;50.804;7.126;2023-04-25T03:21:27;14.85;;;5.35;;
33954;SDS011;20233;50.804;7.126;2023-04-25T03:23:53;14.95;;;5.07;;
33954;SDS011;20233;50.804;7.126;2023-04-25T03:26:18;15.57;;;5.38;;
33954;SDS011;20233;50.804;7.126;2023-04-25T03:28:45;15.45;;;4.82;;
33954;SDS011;20233;50.804;7.126;2023-04-25T03:31:11;15.82;;;4.35;;
33954;SDS011;20233;50.804;7.126;2023-04-25T03:33:36;12.68;;;5.20;;
33954;SDS011;20233;50.804;7.126;2023-04-25T03:36:02;13.80;;;4.70;;
33954;SDS011;20233;50.804;7.126;2023-04-25T03:38:28;11.15;;;4.00;;
33954;SDS011;20233;50.804;7.126;2023-04-25T03:40:53;17.30;;;4.63;;
33954;SDS011;20233;50.804;7.126;2023-04-25T03:43:19;14.65;;;4.47;;
33954;SDS011;20233;50.804;7.126;2023-04-25T03:45:45;10.88;;;3.72;;
33954;SDS011;20233;50.804;7.126;2023-04-25T03:48:12;15.07;;;4.07;;
33954;SDS011;20233;50.804;7.126;2023-04-25T03:50:37;21.02;;;3.85;;
33954;SDS011;20233;50.804;7.126;2023-04-25T03:53:03;16.10;;;4.18;;
33954;SDS011;20233;50.804;7.126;2023-04-25T03:55:28;11.57;;;3.40;;
33954;SDS011;20233;50.804;7.126;2023-04-25T03:57:54;17.48;;;3.85;;
33954;SDS011;20233;50.804;7.126;2023-04-25T04:00:20;11.25;;;3.42;;
33954;SDS011;20233;50.804;7.126;2023-04-25T04:02:45;10.40;;;3.08;;
33954;SDS011;20233;50.804;7.126;2023-04-25T04:05:11;12.05;;;4.00;;
33954;SDS011;20233;50.804;7.126;2023-04-25T04:07:36;10.90;;;4.22;;
33954;SDS011;20233;50.804;7.126;2023-04-25T04:10:07;10.40;;;3.35;;
33954;SDS011;20233;50.804;7.126;2023-04-25T04:12:36;12.10;;;3.92;;
33954;SDS011;20233;50.804;7.126;2023-04-25T04:15:04;14.88;;;4.35;;
33954;SDS011;20233;50.804;7.126;2023-04-25T04:17:30;13.07;;;5.00;;
33954;SDS011;20233;50.804;7.126;2023-04-25T04:19:57;14.38;;;4.22;;
33954;SDS011;20233;50.804;7.126;2023-04-25T04:22:23;15.85;;;4.20;;
33954;SDS011;20233;50.804;7.126;2023-04-25T04:24:49;11.95;;;3.65;;
33954;SDS011;20233;50.804;7.126;2023-04-25T04:27:15;10.57;;;3.72;;
33954;SDS011;20233;50.804;7.126;2023-04-25T04:29:42;13.90;;;3.63;;
33954;SDS011;20233;50.804;7.126;2023-04-25T04:32:08;11.00;;;3.80;;
33954;SDS011;20233;50.804;7.126;2023-04-25T04:34:34;10.93;;;4.50;;
33954;SDS011;20233;50.804;7.126;2023-04-25T04:37:00;14.20;;;4.63;;
33954;SDS011;20233;50.804;7.126;2023-04-25T04:39:25;13.70;;;4.30;;
33954;SDS011;20233;50.804;7.126;2023-04-25T04:41:51;15.75;;;5.05;;
33954;SDS011;20233;50.804;7.126;2023-04-25T04:44:20;9.98;;;4.75;;
33954;SDS011;20233;50.804;7.126;2023-04-25T04:46:46;19.05;;;5.55;;
33954;SDS011;20233;50.804;7.126;2023-04-25T04:49:11;12.77;;;5.20;;
33954;SDS011;20233;50.804;7.126;2023-04-25T04:51:38;17.38;;;5.82;;
33954;SDS011;20233;50.804;7.126;2023-04-25T04:54:05;17.20;;;6.57;;
33954;SDS011;20233;50.804;7.126;2023-04-25T04:56:31;19.58;;;6.65;;
33954;SDS011;20233;50.804;7.126;2023-04-25T04:58:57;16.27;;;7.90;;
33954;SDS011;20233;50.804;7.126;2023-04-25T05:01:23;15.63;;;6.72;;
33954;SDS011;20233;50.804;7.126;2023-04-25T05:03:49;18.15;;;6.10;;
33954;SDS011;20233;50.804;7.126;2023-04-25T05:06:16;15.32;;;5.28;;
33954;SDS011;20233;50.804;7.126;2023-04-25T05:08:44;14.55;;;5.45;;
33954;SDS011;20233;50.804;7.126;2023-04-25T05:11:11;15.02;;;4.97;;
33954;SDS011;20233;50.804;7.126;2023-04-25T05:13:38;14.15;;;5.63;;
33954;SDS011;20233;50.804;7.126;2023-04-25T05:16:06;18.90;;;5.65;;
33954;SDS011;20233;50.804;7.126;2023-04-25T05:18:33;16.65;;;6.30;;
33954;SDS011;20233;50.804;7.126;2023-04-25T05:20:59;13.35;;;5.68;;
33954;SDS011;20233;50.804;7.126;2023-04-25T05:23:27;18.50;;;5.40;;
33954;SDS011;20233;50.804;7.126;2023-04-25T05:25:57;14.00;;;5.25;;
33954;SDS011;20233;50.804;7.126;2023-04-25T05:28:26;16.50;;;5.68;;
33954;SDS011;20233;50.804;7.126;2023-04-25T05:30:53;16.00;;;4.80;;
33954;SDS011;20233;50.804;7.126;2023-04-25T05:33:22;17.73;;;5.10;;
33954;SDS011;20233;50.804;7.126;2023-04-25T05:35:51;21.33;;;3.85;;
33954;SDS011;20233;50.804;7.126;2023-04-25T05:38:17;11.70;;;3.60;;
33954;SDS011;20233;50.804;7.126;2023-04-25T05:40:44;18.83;;;3.67;;
33954;SDS011;20233;50.804;7.126;2023-04-25T05:43:11;11.80;;;4.40;;
33954;SDS011;20233;50.804;7.126;2023-04-25T05:45:38;17.08;;;3.78;;
33954;SDS011;20233;50.804;7.126;2023-04-25T05:48:06;15.38;;;4.88;;
33954;SDS011;20233;50.804;7.126;2023-04-25T05:50:33;17.85;;;5.75;;
33954;SDS011;20233;50.804;7.126;2023-04-25T05:53:01;14.82;;;3.85;;
33954;SDS011;20233;50.804;7.126;2023-04-25T05:55:28;16.33;;;4.45;;
33954;SDS011;20233;50.804;7.126;2023-04-25T05:57:56;17.15;;;4.75;;
33954;SDS011;20233;50.804;7.126;2023-04-25T06:00:26;23.37;;;5.33;;
33954;SDS011;20233;50.804;7.126;2023-04-25T06:02:54;14.85;;;4.00;;
33954;SDS011;20233;50.804;7.126;2023-04-25T06:05:22;17.08;;;4.43;;
33954;SDS011;20233;50.804;7.126;2023-04-25T06:07:50;13.65;;;4.18;;
33954;SDS011;20233;50.804;7.126;2023-04-25T06:10:15;13.32;;;3.83;;
33954;SDS011;20233;50.804;7.126;2023-04-25T06:12:42;17.88;;;4.45;;
33954;SDS011;20233;50.804;7.126;2023-04-25T06:15:08;21.05;;;3.45;;
33954;SDS011;20233;50.804;7.126;2023-04-25T06:17:36;17.08;;;5.63;;
33954;SDS011;20233;50.804;7.126;2023-04-25T06:20:03;12.43;;;4.07;;
33954;SDS011;20233;50.804;7.126;2023-04-25T06:22:33;14.37;;;4.03;;
33954;SDS011;20233;50.804;7.126;2023-04-25T06:24:59;16.52;;;4.18;;
33954;SDS011;20233;50.804;7.126;2023-04-25T06:27:30;19.98;;;5.55;;
33954;SDS011;20233;50.804;7.126;2023-04-25T06:29:58;18.13;;;5.13;;
33954;SDS011;20233;50.804;7.126;2023-04-25T06:32:27;19.45;;;5.70;;
33954;SDS011;20233;50.804;7.126;2023-04-25T06:34:55;16.33;;;5.30;;
33954;SDS011;20233;50.804;7.126;2023-04-25T06:37:26;13.68;;;4.80;;
33954;SDS011;20233;50.804;7.126;2023-04-25T06:39:54;14.63;;;3.95;;
33954;SDS011;20233;50.804;7.126;2023-04-25T06:42:21;16.65;;;5.30;;
33954;SDS011;20233;50.804;7.126;2023-04-25T06:44:49;17.75;;;5.15;;
33954;SDS011;20233;50.804;7.126;2023-04-25T06:47:15;16.48;;;4.95;;
33954;SDS011;20233;50.804;7.126;2023-04-25T06:49:43;16.55;;;6.25;;
33954;SDS011;20233;50.804;7.126;2023-04-25T06:52:10;17.73;;;4.93;;
33954;SDS011;20233;50.804;7.126;2023-04-25T06:54:38;13.15;;;4.20;;
33954;SDS011;20233;50.804;7.126;2023-04-25T06:57:07;18.08;;;5.65;;
33954;SDS011;20233;50.804;7.126;2023-04-25T06:59:34;14.48;;;4.60;;
33954;SDS011;20233;50.804;7.126;2023-04-25T07:02:02;14.52;;;4.55;;
33954;SDS011;20233;50.804;7.126;2023-04-25T07:04:31;19.60;;;5.32;;
33954;SDS011;20233;50.804;7.126;2023-04-25T07:06:59;15.00;;;5.00;;
33954;SDS011;20233;50.804;7.126;2023-04-25T07:09:28;13.88;;;6.20;;
33954;SDS011;20233;50.804;7.126;2023-04-25T07:11:55;25.02;;;6.28;;
33954;SDS011;20233;50.804;7.126;2023-04-25T07:14:23;16.85;;;5.13;;
33954;SDS011;20233;50.804;7.126;2023-04-25T07:16:50;16.15;;;3.92;;
33954;SDS011;20233;50.804;7.126;2023-04-25T07:19:18;14.73;;;3.92;;
33954;SDS011;20233;50.804;7.126;2023-04-25T07:21:46;16.75;;;3.90;;
33954;SDS011;20233;50.804;7.126;2023-04-25T07:24:12;14.25;;;3.90;;
33954;SDS011;20233;50.804;7.126;2023-04-25T07:26:39;15.30;;;3.63;;
33954;SDS011;20233;50.804;7.126;2023-04-25T07:29:09;13.50;;;3.65;;
33954;SDS011;20233;50.804;7.126;2023-04-25T07:31:36;17.42;;;3.60;;
33954;SDS011;20233;50.804;7.126;2023-04-25T07:34:04;17.08;;;3.60;;
33954;SDS011;20233;50.804;7.126;2023-04-25T07:36:34;11.85;;;3.47;;
33954;SDS011;20233;50.804;7.126;2023-04-25T07:39:02;11.73;;;3.65;;
33954;SDS011;20233;50.804;7.126;2023-04-25T07:41:32;13.23;;;3.23;;
33954;SDS011;20233;50.804;7.126;2023-04-25T07:44:05;11.10;;;4.45;;
33954;SDS011;20233;50.804;7.126;2023-04-25T07:46:37;10.38;;;3.58;;
33954;SDS011;20233;50.804;7.126;2023-04-25T07:49:06;13.18;;;3.33;;
33954;SDS011;20233;50.804;7.126;2023-04-25T07:51:38;12.17;;;3.20;;
33954;SDS011;20233;50.804;7.126;2023-04-25T07:54:17;11.63;;;4.40;;
33954;SDS011;20233;50.804;7.126;2023-04-25T07:56:43;13.13;;;3.17;;
33954;SDS011;20233;50.804;7.126;2023-04-25T07:59:10;13.05;;;3.65;;
33954;SDS011;20233;50.804;7.126;2023-04-25T08:01:40;14.63;;;3.17;;
33954;SDS011;20233;50.804;7.126;2023-04-25T08:04:12;10.38;;;2.63;;
33954;SDS011;20233;50.804;7.126;2023-04-25T08:06:40;11.45;;;3.00;;
33954;SDS011;20233;50.804;7.126;2023-04-25T08:09:12;5.50;;;2.55;;
33954;SDS011;20233;50.804;7.126;2023-04-25T08:11:39;9.52;;;2.35;;
33954;SDS011;20233;50.804;7.126;2023-04-25T08:14:09;14.45;;;2.92;;
33954;SDS011;20233;50.804;7.126;2023-04-25T08:16:38;8.82;;;2.95;;
33954;SDS011;20233;50.804;7.126;2023-04-25T08:19:06;18.20;;;4.45;;
33954;SDS011;20233;50.804;7.126;2023-04-25T08:21:38;13.70;;;4.20;;
33954;SDS011;20233;50.804;7.126;2023-04-25T08:24:14;10.98;;;3.22;;
33954;SDS011;20233;50.804;7.126;2023-04-25T08:26:42;15.38;;;2.88;;
33954;SDS011;20233;50.804;7.126;2023-04-25T08:29:11;14.02;;;3.83;;
33954;SDS011;20233;50.804;7.126;2023-04-25T08:31:39;9.00;;;2.75;;
33954;SDS011;20233;50.804;7.126;2023-04-25T08:34:09;14.77;;;3.30;;
33954;SDS011;20233;50.804;7.126;2023-04-25T08:36:41;8.52;;;2.25;;
33954;SDS011;20233;50.804;7.126;2023-04-25T08:39:14;14.25;;;2.35;;
33954;SDS011;20233;50.804;7.126;2023-04-25T08:41:44;7.18;;;1.60;;
33954;SDS011;20233;50.804;7.126;2023-04-25T08:44:12;9.85;;;3.30;;
33954;SDS011;20233;50.804;7.126;2023-04-25T08:49:16;13.27;;;3.40;;
33954;SDS011;20233;50.804;7.126;2023-04-25T08:51:45;11.18;;;1.75;;
33954;SDS011;20233;50.804;7.126;2023-04-25T08:54:16;10.13;;;2.17;;
33954;SDS011;20233;50.804;7.126;2023-04-25T08:56:47;11.10;;;2.60;;
33954;SDS011;20233;50.804;7.126;2023-04-25T08:59:16;10.15;;;3.80;;
33954;SDS011;20233;50.804;7.126;2023-04-25T09:01:56;8.27;;;1.83;;
33954;SDS011;20233;50.804;7.126;2023-04-25T09:04:25;10.40;;;2.20;;
33954;SDS011;20233;50.804;7.126;2023-04-25T09:06:53;7.47;;;2.35;;
33954;SDS011;20233;50.804;7.126;2023-04-25T09:09:20;7.32;;;1.90;;
33954;SDS011;20233;50.804;7.126;2023-04-25T09:11:47;10.40;;;1.63;;
33954;SDS011;20233;50.804;7.126;2023-04-25T09:14:19;9.73;;;1.10;;
33954;SDS011;20233;50.804;7.126;2023-04-25T09:17:07;5.60;;;0.95;;
33954;SDS011;20233;50.804;7.126;2023-04-25T09:19:35;7.47;;;1.08;;
33954;SDS011;20233;50.804;7.126;2023-04-25T09:22:06;4.80;;;0.90;;
33954;SDS011;20233;50.804;7.126;2023-04-25T09:27:12;6.18;;;0.93;;
33954;SDS011;20233;50.804;7.126;2023-04-25T09:29:46;7.65;;;1.15;;
33954;SDS011;20233;50.804;7.126;2023-04-25T09:32:23;7.18;;;1.23;;
33954;SDS011;20233;50.804;7.126;2023-04-25T09:34:56;7.55;;;1.67;;
33954;SDS011;20233;50.804;7.126;2023-04-25T09:37:26;11.65;;;3.05;;
33954;SDS011;20233;50.804;7.126;2023-04-25T09:40:04;10.43;;;1.43;;
33954;SDS011;20233;50.804;7.126;2023-04-25T09:42:40;9.55;;;2.00;;
33954;SDS011;20233;50.804;7.126;2023-04-25T09:45:12;9.57;;;1.90;;
33954;SDS011;20233;50.804;7.126;2023-04-25T09:50:17;10.35;;;1.98;;
33954;SDS011;20233;50.804;7.126;2023-04-25T09:52:45;6.10;;;1.70;;
33954;SDS011;20233;50.804;7.126;2023-04-25T09:55:31;9.75;;;1.40;;
33954;SDS011;20233;50.804;7.126;2023-04-25T09:58:00;9.73;;;1.98;;
33954;SDS011;20233;50.804;7.126;2023-04-25T10:00:33;9.18;;;1.38;;
33954;SDS011;20233;50.804;7.126;2023-04-25T10:03:01;9.00;;;1.75;;
33954;SDS011;20233;50.804;7.126;2023-04-25T10:05:32;9.07;;;1.67;;
33954;SDS011;20233;50.804;7.126;2023-04-25T10:08:03;9.90;;;1.55;;
33954;SDS011;20233;50.804;7.126;2023-04-25T10:10:32;11.00;;;1.65;;
33954;SDS011;20233;50.804;7.126;2023-04-25T10:13:03;13.90;;;1.73;;
33954;SDS011;20233;50.804;7.126;2023-04-25T10:15:33;11.35;;;1.73;;
33954;SDS011;20233;50.804;7.126;2023-04-25T10:18:03;6.75;;;0.65;;
33954;SDS011;20233;50.804;7.126;2023-04-25T10:20:33;4.32;;;0.93;;
33954;SDS011;20233;50.804;7.126;2023-04-25T10:23:04;7.22;;;0.80;;
33954;SDS011;20233;50.804;7.126;2023-04-25T10:25:41;3.97;;;0.73;;
33954;SDS011;20233;50.804;7.126;2023-04-25T10:28:11;4.63;;;0.93;;
33954;SDS011;20233;50.804;7.126;2023-04-25T10:33:31;4.40;;;0.63;;
33954;SDS011;20233;50.804;7.126;2023-04-25T10:36:23;8.95;;;0.90;;
33954;SDS011;20233;50.804;7.126;2023-04-25T10:38:52;5.38;;;0.93;;
33954;SDS011;20233;50.804;7.126;2023-04-25T10:41:21;7.43;;;0.90;;
33954;SDS011;20233;50.804;7.126;2023-04-25T10:43:49;9.13;;;0.82;;
33954;SDS011;20233;50.804;7.126;2023-04-25T10:46:29;9.88;;;1.35;;
33954;SDS011;20233;50.804;7.126;2023-04-25T10:49:01;10.00;;;0.98;;
33954;SDS011;20233;50.804;7.126;2023-04-25T10:51:33;11.82;;;0.80;;
33954;SDS011;20233;50.804;7.126;2023-04-25T10:54:04;7.20;;;1.13;;
33954;SDS011;20233;50.804;7.126;2023-04-25T10:56:36;5.78;;;1.10;;
33954;SDS011;20233;50.804;7.126;2023-04-25T10:59:11;9.02;;;0.73;;
33954;SDS011;20233;50.804;7.126;2023-04-25T11:01:44;10.55;;;1.30;;
33954;SDS011;20233;50.804;7.126;2023-04-25T11:04:29;5.88;;;1.05;;
33954;SDS011;20233;50.804;7.126;2023-04-25T11:09:50;11.05;;;1.13;;
33954;SDS011;20233;50.804;7.126;2023-04-25T11:12:17;8.48;;;1.67;;
33954;SDS011;20233;50.804;7.126;2023-04-25T11:14:44;15.90;;;1.75;;
33954;SDS011;20233;50.804;7.126;2023-04-25T11:17:11;8.07;;;0.70;;
33954;SDS011;20233;50.804;7.126;2023-04-25T11:19:38;8.35;;;1.17;;
33954;SDS011;20233;50.804;7.126;2023-04-25T11:22:05;7.78;;;1.25;;
33954;SDS011;20233;50.804;7.126;2023-04-25T11:24:33;6.43;;;1.15;;
33954;SDS011;20233;50.804;7.126;2023-04-25T11:29:34;8.20;;;1.05;;
33954;SDS011;20233;50.804;7.126;2023-04-25T11:32:02;8.32;;;1.23;;
33954;SDS011;20233;50.804;7.126;2023-04-25T11:34:31;7.70;;;0.80;;
33954;SDS011;20233;50.804;7.126;2023-04-25T11:37:02;8.00;;;1.00;;
33954;SDS011;20233;50.804;7.126;2023-04-25T11:39:30;7.70;;;1.10;;
33954;SDS011;20233;50.804;7.126;2023-04-25T11:41:57;5.53;;;0.98;;
33954;SDS011;20233;50.804;7.126;2023-04-25T11:44:26;5.25;;;0.63;;
33954;SDS011;20233;50.804;7.126;2023-04-25T11:46:56;9.88;;;0.93;;
33954;SDS011;20233;50.804;7.126;2023-04-25T11:49:24;6.05;;;0.77;;
33954;SDS011;20233;50.804;7.126;2023-04-25T11:51:58;6.20;;;1.00;;
33954;SDS011;20233;50.804;7.126;2023-04-25T11:54:26;4.88;;;0.52;;
33954;SDS011;20233;50.804;7.126;2023-04-25T11:56:54;9.90;;;1.00;;
33954;SDS011;20233;50.804;7.126;2023-04-25T11:59:25;8.43;;;1.00;;
33954;SDS011;20233;50.804;7.126;2023-04-25T12:01:55;7.30;;;0.60;;
33954;SDS011;20233;50.804;7.126;2023-04-25T12:04:24;5.53;;;0.82;;
33954;SDS011;20233;50.804;7.126;2023-04-25T12:06:52;4.82;;;0.50;;
33954;SDS011;20233;50.804;7.126;2023-04-25T12:09:21;6.18;;;0.50;;
33954;SDS011;20233;50.804;7.126;2023-04-25T12:11:59;9.65;;;0.52;;
33954;SDS011;20233;50.804;7.126;2023-04-25T12:14:31;6.00;;;0.73;;
33954;SDS011;20233;50.804;7.126;2023-04-25T12:17:00;3.65;;;0.55;;
33954;SDS011;20233;50.804;7.126;2023-04-25T12:19:33;7.38;;;0.80;;
33954;SDS011;20233;50.804;7.126;2023-04-25T12:22:02;3.28;;;0.50;;
33954;SDS011;20233;50.804;7.126;2023-04-25T12:24:44;4.93;;;0.40;;
33954;SDS011;20233;50.804;7.126;2023-04-25T12:27:11;6.68;;;1.00;;
33954;SDS011;20233;50.804;7.126;2023-04-25T12:29:50;7.10;;;0.50;;
33954;SDS011;20233;50.804;7.126;2023-04-25T12:32:18;3.78;;;0.60;;
33954;SDS011;20233;50.804;7.126;2023-04-25T12:34:45;8.00;;;1.48;;
33954;SDS011;20233;50.804;7.126;2023-04-25T12:37:12;7.55;;;0.65;;
33954;SDS011;20233;50.804;7.126;2023-04-25T12:39:40;8.15;;;0.60;;
33954;SDS011;20233;50.804;7.126;2023-04-25T12:42:07;7.03;;;0.40;;
33954;SDS011;20233;50.804;7.126;2023-04-25T12:44:37;7.13;;;1.10;;
33954;SDS011;20233;50.804;7.126;2023-04-25T12:47:05;5.95;;;0.35;;
33954;SDS011;20233;50.804;7.126;2023-04-25T12:49:34;4.75;;;0.80;;
33954;SDS011;20233;50.804;7.126;2023-04-25T12:52:00;5.50;;;0.68;;
33954;SDS011;20233;50.804;7.126;2023-04-25T12:54:33;6.20;;;0.68;;
33954;SDS011;20233;50.804;7.126;2023-04-25T12:57:01;3.58;;;0.40;;
33954;SDS011;20233;50.804;7.126;2023-04-25T12:59:29;4.97;;;0.40;;
33954;SDS011;20233;50.804;7.126;2023-04-25T13:02:00;4.07;;;0.30;;
33954;SDS011;20233;50.804;7.126;2023-04-25T13:04:29;2.83;;;0.30;;
33954;SDS011;20233;50.804;7.126;2023-04-25T13:06:59;7.90;;;0.57;;
33954;SDS011;20233;50.804;7.126;2023-04-25T13:09:27;2.28;;;0.35;;
33954;SDS011;20233;50.804;7.126;2023-04-25T13:11:54;2.47;;;0.50;;
33954;SDS011;20233;50.804;7.126;2023-04-25T13:14:23;3.55;;;0.80;;
33954;SDS011;20233;50.804;7.126;2023-04-25T13:16:49;3.05;;;0.32;;
33954;SDS011;20233;50.804;7.126;2023-04-25T13:19:16;3.88;;;0.30;;
33954;SDS011;20233;50.804;7.126;2023-04-25T13:21:42;3.30;;;0.30;;
33954;SDS011;20233;50.804;7.126;2023-04-25T13:24:10;4.53;;;0.95;;
33954;SDS011;20233;50.804;7.126;2023-04-25T13:26:38;2.97;;;0.30;;
33954;SDS011;20233;50.804;7.126;2023-04-25T13:29:07;3.40;;;0.30;;
33954;SDS011;20233;50.804;7.126;2023-04-25T13:31:37;3.28;;;0.40;;
33954;SDS011;20233;50.804;7.126;2023-04-25T13:34:05;4.82;;;0.80;;
33954;SDS011;20233;50.804;7.126;2023-04-25T13:36:33;3.58;;;0.20;;
33954;SDS011;20233;50.804;7.126;2023-04-25T13:39:03;3.47;;;0.85;;
33954;SDS011;20233;50.804;7.126;2023-04-25T13:41:31;5.75;;;0.40;;
33954;SDS011;20233;50.804;7.126;2023-04-25T13:43:59;3.58;;;0.45;;
33954;SDS011;20233;50.804;7.126;2023-04-25T13:46:27;4.60;;;0.85;;
33954;SDS011;20233;50.804;7.126;2023-04-25T13:48:55;4.05;;;0.60;;
33954;SDS011;20233;50.804;7.126;2023-04-25T13:51:21;3.95;;;0.60;;
33954;SDS011;20233;50.804;7.126;2023-04-25T13:53:49;6.00;;;1.15;;
33954;SDS011;20233;50.804;7.126;2023-04-25T13:56:16;4.82;;;0.70;;
33954;SDS011;20233;50.804;7.126;2023-04-25T13:58:44;3.65;;;0.80;;
33954;SDS011;20233;50.804;7.126;2023-04-25T14:01:11;6.97;;;0.35;;
33954;SDS011;20233;50.804;7.126;2023-04-25T14:03:39;4.28;;;1.30;;
33954;SDS011;20233;50.804;7.126;2023-04-25T14:06:08;4.53;;;0.35;;
33954;SDS011;20233;50.804;7.126;2023-04-25T14:08:37;7.75;;;1.05;;
33954;SDS011;20233;50.804;7.126;2023-04-25T14:11:13;7.53;;;1.10;;
33954;SDS011;20233;50.804;7.126;2023-04-25T14:13:44;3.70;;;0.95;;
33954;SDS011;20233;50.804;7.126;2023-04-25T14:16:10;2.97;;;0.40;;
33954;SDS011;20233;50.804;7.126;2023-04-25T14:18:38;3.08;;;0.30;;
33954;SDS011;20233;50.804;7.126;2023-04-25T14:21:07;4.32;;;0.40;;
33954;SDS011;20233;50.804;7.126;2023-04-25T14:23:34;3.17;;;0.50;;
33954;SDS011;20233;50.804;7.126;2023-04-25T14:26:02;5.55;;;0.40;;
33954;SDS011;20233;50.804;7.126;2023-04-25T14:28:31;5.03;;;0.40;;
33954;SDS011;20233;50.804;7.126;2023-04-25T14:30:59;3.08;;;0.22;;
33954;SDS011;20233;50.804;7.126;2023-04-25T14:33:29;1.95;;;0.40;;
33954;SDS011;20233;50.804;7.126;2023-04-25T14:35:57;2.88;;;0.43;;
33954;SDS011;20233;50.804;7.126;2023-04-25T14:38:25;5.07;;;0.40;;
33954;SDS011;20233;50.804;7.126;2023-04-25T14:40:52;3.13;;;0.55;;
33954;SDS011;20233;50.804;7.126;2023-04-25T14:43:19;3.80;;;0.63;;
33954;SDS011;20233;50.804;7.126;2023-04-25T14:45:47;3.75;;;0.38;;
33954;SDS011;20233;50.804;7.126;2023-04-25T14:48:13;1.38;;;0.20;;
33954;SDS011;20233;50.804;7.126;2023-04-25T14:50:40;3.10;;;0.30;;
33954;SDS011;20233;50.804;7.126;2023-04-25T14:53:12;3.45;;;0.30;;
33954;SDS011;20233;50.804;7.126;2023-04-25T14:55:40;3.97;;;0.30;;
33954;SDS011;20233;50.804;7.126;2023-04-25T14:58:09;1.70;;;0.22;;
33954;SDS011;20233;50.804;7.126;2023-04-25T15:00:37;3.75;;;0.30;;
33954;SDS011;20233;50.804;7.126;2023-04-25T15:03:04;3.63;;;0.20;;